ADDS METAR Data INFO
IDs: Format: Raw Decoded Include TAF

Data at: 2029 UTC 20 Jul 2018

KOTM 201953Z AUTO 31016G25KT 10SM BKN033 26/19 A2984 RMK AO2 PK WND 33027/1913 SLP097 T02610189
KOTM 201853Z AUTO 30016G23KT 10SM SCT030 OVC037 25/19 A2985 RMK AO2 SLP100 T02500189
KOTM 201843Z AUTO 31015G22KT 10SM BKN033 25/19 A2985 RMK AO2 T02500189
KOTM 201835Z AUTO 31015G21KT 10SM BKN029 BKN036 25/19 A2984 RMK AO2 T02500189
KOTM 201753Z AUTO 30015G24KT 10SM SCT029 BKN043 25/19 A2984 RMK AO2 PK WND 30031/1727 SLP097 T02500189 10250 20200 51007
KOTM 201653Z AUTO 30015G25KT 10SM FEW025 FEW030 BKN036 24/18 A2984 RMK AO2 PK WND 31030/1606 SLP097 T02390183
KOTM 201622Z AUTO 32018G27KT 10SM SCT025 OVC032 23/18 A2984 RMK AO2 PK WND 31030/1606 T02280183
KOTM 201553Z AUTO 31020G27KT 10SM OVC029 23/18 A2983 RMK AO2 PK WND 32027/1552 SLP094 T02280183
KOTM 201453Z AUTO 31016G22KT 10SM OVC020 22/18 A2982 RMK AO2 SLP091 T02170183 51019
KOTM 201353Z AUTO 29014KT 10SM OVC023 21/18 A2980 RMK AO2 SLP086 T02110178
KOTM 201253Z AUTO 28012G21KT 10SM BKN023 21/17 A2978 RMK AO2 SLP078 T02060172
KOTM 201217Z AUTO 28014G21KT 10SM BKN022 20/17 A2977 RMK AO2 T02000172
KOTM 201153Z AUTO 28012KT 10SM FEW023 20/17 A2976 RMK AO2 SLP071 70062 T02000167 10233 20200 53014
KOTM 201140Z AUTO 28013G21KT 10SM SCT023 20/17 A2975 RMK AO2 T02000167
KOTM 201133Z AUTO 28014G21KT 10SM BKN023 21/17 A2975 RMK AO2 T02060167
KOTM 201053Z AUTO 28013G22KT 10SM CLR 21/16 A2974 RMK AO2 SLP065 T02060161
KOTM 200953Z AUTO 26011G20KT 10SM CLR 21/16 A2972 RMK AO2 SLP056 T02060161
KOTM 200853Z AUTO 27011KT 10SM CLR 22/16 A2972 RMK AO2 SLP055 T02170161 58002
KOTM 200753Z AUTO 27010KT 10SM CLR 22/16 A2972 RMK AO2 SLP056 T02170161
KOTM 200653Z AUTO 27012G21KT 10SM CLR 23/18 A2972 RMK AO2 SLP057 T02280178
KOTM 200553Z AUTO 26011KT 10SM CLR 23/19 A2972 RMK AO2 SLP057 T02280194 10244 20206 403110183 56007
KOTM 200453Z AUTO 19009KT 10SM SCT065 21/20 A2972 RMK AO2 SLP058 T02110200
KOTM 200353Z AUTO 19008KT 10SM CLR 22/20 A2973 RMK AO2 SLP061 T02170200
KOTM 200253Z AUTO 19008KT 10SM CLR 22/21 A2974 RMK AO2 SLP067 T02170206 53007
KOTM 200153Z AUTO 17004KT 10SM CLR 21/20 A2972 RMK AO2 SLP060 T02110200
KOTM 200053Z AUTO 00000KT 10SM CLR 24/21 A2972 RMK AO2 LTG DSNT SE SLP057 T02390211
KOTM 192353Z AUTO 10007KT 10SM CLR 24/20 A2972 RMK AO2 LTG DSNT SE AND S TSE2259B06E21 SLP059 60062 T02390200 10311 20194 50000
KOTM 192327Z AUTO 12009KT 10SM CLR 23/20 A2972 RMK AO2 LTG DSNT E-S TSE2259B06E21 T02280200
KOTM 192312Z AUTO 10011KT 10SM TS FEW060 23/19 A2972 RMK AO2 LTG DSNT E-S TSE2259B06 T02280189
KOTM 192305Z AUTO 07011KT 10SM VCTS FEW014 FEW060 23/19 A2972 RMK AO2 LTG DSNT NE-S TSE2259 T02280194
KOTM 192253Z AUTO 08009G25KT 10SM TS SCT021 SCT039 22/19 A2973 RMK AO2 PK WND 34062/2216 WSHFT 2235 LTG DSNT ALQDS RAB12E51 SLP062 P0062 T02220194
KOTM 192249Z AUTO 08016G30KT 10SM -TSRA SCT021 BKN036 22/19 A2973 RMK AO2 PK WND 34062/2216 WSHFT 2235 LTG DSNT ALQDS RAB12 P0062
KOTM 192248Z AUTO 08016G30KT 10SM -TSRA SCT019 BKN036 21/19 A2973 RMK AO2 PK WND 34062/2216 WSHFT 2208 LTG DSNT ALQDS RAB12 P0062
KOTM 192242Z AUTO 05023G40KT 2 1/2SM -TSRA BR BKN019 BKN038 BKN060 20/18 A2973 RMK AO2 PK WND 34062/2216 WSHFT 2208 LTG DSNT ALQDS RAB12 P0062 T02000178
KOTM 192233Z AUTO 04026G54KT 1/2SM +TSRA FG BKN021 BKN036 OVC065 20/18 A2973 RMK AO2 PK WND 34062/2216 WSHFT 2208 LTG DSNT ALQDS RAB12 P0059 T02000178
KOTM 192222Z AUTO 34039G62KT 1/4SM +TSRA FG SCT016 BKN046 BKN065 21/19 A2974 RMK AO2 PK WND 34062/2216 WSHFT 2208 LTG DSNT ALQDS RAB12 P0036 T02060194
KOTM 192216Z AUTO 33039G62KT 3/4SM +TSRA BR FEW015 SCT036 BKN046 21/19 A2972 RMK AO2 PK WND 34062/2216 WSHFT 2202 LTG DSNT ALQDS RAB12 P0019 T02110189
KOTM 192213Z AUTO 33032G44KT 1 1/2SM -TSRA FEW017 SCT045 BKN065 25/20 A2972 RMK AO2 PK WND 34044/2213 WSHFT 2159 LTG DSNT ALQDS RAB12 P0010 T02500200
KOTM 192203Z AUTO 18011KT 1 3/4SM TS HZ FEW045 29/22 A2969 RMK AO2 LTG DSNT W-NE PRESFR T02940217
KOTM 192153Z AUTO 20012G17KT 10SM TS FEW041 SCT050 29/23 A2972 RMK AO2 LTG DSNT W-NE TSB44 SLP057 T02940228
KOTM 192150Z AUTO 21009G18KT 10SM TS FEW040 FEW050 29/22 A2974 RMK AO2 LTG DSNT W-NE TSB44
KOTM 192136Z AUTO 21014G21KT 10SM VCTS FEW040 FEW050 30/23 A2972 RMK AO2 LTG DSNT NW-NE T03000228
KOTM 192053Z AUTO 21010G18KT 10SM SCT039 BKN049 BKN060 29/23 A2974 RMK AO2 LTG DSNT NW SLP064 T02940228 56024
KOTM 191953Z AUTO 18012G19KT 10SM FEW027 BKN036 BKN044 29/23 A2976 RMK AO2 SLP069 T02940233
KOTM 191909Z AUTO 18008KT 10SM OVC028 28/23 A2978 RMK AO2 T02780228
KOTM 191853Z AUTO 18011KT 10SM BKN030 28/23 A2978 RMK AO2 SLP078 T02830228
KOTM 191753Z AUTO 16011KT 10SM BKN028 27/21 A2982 RMK AO2 SLP089 T02670211 10272 20183 58021
KOTM 191653Z AUTO 13011KT 10SM OVC029 24/20 A2984 RMK AO2 SLP098 T02440200
KOTM 191636Z AUTO 14010KT 10SM SCT023 BKN031 24/20 A2984 RMK AO2 T02440200
KOTM 191624Z AUTO 12010KT 10SM BKN023 24/19 A2985 RMK AO2 T02440194
KOTM 191553Z AUTO 12009KT 10SM FEW037 SCT045 24/19 A2986 RMK AO2 LTG DSNT E SLP104 T02390194
KOTM 191528Z AUTO 12006KT 10SM FEW022 BKN030 OVC037 22/19 A2987 RMK AO2 LTG DSNT NE-SE T02220189
KOTM 191453Z AUTO 13007KT 10SM BKN023 OVC034 21/18 A2988 RMK AO2 LTG DSNT NE SLP112 T02060178 56004
KOTM 191353Z AUTO 11012KT 10SM BKN023 OVC035 19/17 A2988 RMK AO2 SLP113 T01940172
KOTM 191335Z AUTO 12014KT 10SM SCT028 OVC035 19/17 A2988 RMK AO2 LTG DSNT NE T01890172
KOTM 191301Z AUTO 11011KT 10SM BKN028 OVC035 19/17 A2989 RMK AO2 LTG DSNT N T01890172
KOTM 191253Z AUTO 12011KT 10SM BKN030 BKN037 OVC047 19/17 A2989 RMK AO2 LTG DSNT N AND NW SLP116 T01890172
KOTM 191153Z AUTO 11009KT 10SM OVC032 18/17 A2992 RMK AO2 LTG DSNT N AND NW RAE05 SLP124 P0000 60035 70035 T01830172 10239 20183 57007
KOTM 191053Z AUTO 11010KT 10SM -RA OVC039 19/18 A2992 RMK AO2 LTG DSNT NW-E RAB46 SLP124 P0001 T01890178
KOTM 190953Z AUTO 11007KT 10SM OVC038 19/18 A2993 RMK AO2 LTG DSNT N-E RAE40 TSE22 SLP129 P0006 T01940183
KOTM 190949Z AUTO 10008KT 10SM OVC038 19/18 A2994 RMK AO2 LTG DSNT N-E RAE40 TSE22 P0006
KOTM 190928Z AUTO 09009KT 10SM VCTS -RA OVC040 20/19 A2994 RMK AO2 LTG DSNT N-E TSE22 P0006 T02000189
KOTM 190857Z AUTO 07009KT 3SM TSRA BR FEW021 BKN041 OVC055 20/19 A2995 RMK AO2 LTG DSNT NW-NE P0002 T02000189
KOTM 190853Z AUTO 08007G16KT 1 3/4SM +TSRA BR FEW021 BKN041 OVC055 20/18 A2995 RMK AO2 LTG DSNT NW-NE TSB30 SLP134 P0028 60028 T02000183 55005
KOTM 190848Z AUTO 09007KT 1 3/4SM +TSRA BR FEW021 SCT041 OVC055 21/18 A2995 RMK AO2 LTG DSNT NW-E TSB30 P0024
KOTM 190833Z AUTO 07003KT 8SM -TSRA OVC055 21/18 A2995 RMK AO2 LTG DSNT NW-E TSB30 P0006 T02110183